Time;durP1;ratioP1;P1;durP2;ratioP2;P2;SDS_P1;SDS_P2;PMS_P1;PMS_P2;Temp;Humidity;BMP_temperature;BMP_pressure;BME280_temperature;BME280_humidity;BME280_pressure;Samples;Min_cycle;Max_cycle;Signal;HPM_P1;HPM_P2
2023/01/09 07:56:30;;;;;;;9.70;1.25;;;;;;;3.95;86.99;95322.91;2082892;28;20559;-56
2023/01/09 07:57:31;;;;;;;5.28;0.80;;;;;;;4.32;85.65;95318.00;2081636;28;20221;-56
2023/01/09 07:58:32;;;;;;;2.40;0.98;;;;;;;4.56;84.50;95321.31;2081228;28;20220;-55
2023/01/09 07:59:34;;;;;;;4.55;1.00;;;;;;;4.81;82.98;95318.53;2083682;28;20199;-56
2023/01/09 08:00:35;;;;;;;4.88;0.90;;;;;;;4.83;82.57;95313.28;2080258;28;20567;-56
2023/01/09 08:01:37;;;;;;;3.10;0.90;;;;;;;5.03;82.00;95318.41;2079649;28;20247;-56
2023/01/09 08:02:38;;;;;;;2.83;0.80;;;;;;;5.11;81.24;95312.91;2082009;28;20193;-55
2023/01/09 08:03:40;;;;;;;2.42;0.90;;;;;;;5.23;80.61;95327.91;2083149;28;20752;-55
2023/01/09 08:04:41;;;;;;;7.57;0.98;;;;;;;5.30;80.01;95318.09;2083242;28;20196;-55
2023/01/09 08:05:43;;;;;;;6.00;1.20;;;;;;;5.44;79.69;95312.31;2083223;28;20201;-56
2023/01/09 08:06:44;;;;;;;4.60;1.00;;;;;;;5.63;79.37;95319.22;2080472;28;20671;-56
2023/01/09 08:07:46;;;;;;;4.65;1.17;;;;;;;5.47;79.49;95319.94;2082083;28;20747;-56
2023/01/09 08:08:48;;;;;;;5.97;0.90;;;;;;;5.62;79.44;95320.97;2078825;28;20385;-56
2023/01/09 08:09:50;;;;;;;9.30;1.00;;;;;;;5.73;78.93;95323.06;2078977;28;20197;-56
2023/01/09 08:10:52;;;;;;;2.63;1.05;;;;;;;5.59;78.53;95323.72;2082781;28;20207;-56
2023/01/09 08:11:53;;;;;;;6.82;1.00;;;;;;;5.70;78.68;95323.19;2080416;28;20225;-56
2023/01/09 08:12:57;;;;;;;5.10;0.85;;;;;;;5.65;78.05;95309.63;2082900;28;20204;-56
2023/01/09 08:13:59;;;;;;;5.85;1.10;;;;;;;5.80;77.97;95319.28;2081573;28;20224;-56
2023/01/09 08:15:00;;;;;;;7.18;1.00;;;;;;;5.98;77.23;95327.09;2082721;28;20280;-56
2023/01/09 08:16:02;;;;;;;3.75;1.00;;;;;;;5.72;77.95;95317.03;2081206;28;20213;-56
2023/01/09 08:17:04;;;;;;;3.95;0.82;;;;;;;5.86;77.71;95318.97;2082184;28;20227;-56
2023/01/09 08:18:05;;;;;;;11.63;1.20;;;;;;;6.00;76.76;95317.53;2078725;28;20580;-56
2023/01/09 08:19:07;;;;;;;4.03;1.10;;;;;;;6.11;76.58;95311.84;2078975;28;20205;-55
2023/01/09 08:20:10;;;;;;;2.33;1.00;;;;;;;5.86;77.01;95313.81;2083065;28;20200;-56
2023/01/09 08:21:13;;;;;;;2.05;0.70;;;;;;;5.96;76.52;95327.16;2081938;28;20250;-56
2023/01/09 08:22:14;;;;;;;1.88;0.80;;;;;;;5.78;76.48;95325.47;2079641;28;20228;-56
2023/01/09 08:23:16;;;;;;;2.28;0.80;;;;;;;5.82;76.34;95324.41;2082022;28;20197;-56
2023/01/09 08:24:17;;;;;;;7.85;1.00;;;;;;;6.27;76.09;95325.75;2081435;28;20200;-56
2023/01/09 08:25:18;;;;;;;5.10;0.85;;;;;;;5.98;75.76;95312.44;2078788;28;20706;-56
2023/01/09 08:26:20;;;;;;;3.58;0.82;;;;;;;6.12;75.86;95326.47;2081068;28;20782;-56
2023/01/09 08:27:21;;;;;;;4.30;1.10;;;;;;;6.17;75.49;95327.06;2081245;28;20201;-56
2023/01/09 08:28:23;;;;;;;6.88;0.98;;;;;;;5.99;76.05;95329.66;2081295;28;20193;-56
2023/01/09 08:29:24;;;;;;;8.55;1.30;;;;;;;6.10;75.97;95323.94;2080737;28;20216;-56
2023/01/09 08:30:26;;;;;;;5.35;1.00;;;;;;;6.06;76.12;95337.97;2078481;28;20201;-55
2023/01/09 08:31:27;;;;;;;6.43;0.95;;;;;;;6.37;75.55;95328.72;2079235;28;20209;-56
2023/01/09 08:32:29;;;;;;;9.15;1.27;;;;;;;6.36;75.14;95335.66;2083031;28;20197;-56
2023/01/09 08:33:31;;;;;;;5.30;1.00;;;;;;;6.27;75.02;95330.06;2082967;28;20229;-56
2023/01/09 08:34:34;;;;;;;5.80;0.95;;;;;;;5.66;77.12;95329.44;2083623;28;20252;-56
2023/01/09 08:35:36;;;;;;;3.10;0.80;;;;;;;5.32;78.05;95318.88;2081616;28;20209;-56
2023/01/09 08:36:38;;;;;;;4.60;0.90;;;;;;;5.36;77.89;95317.81;2080490;28;20749;-56
2023/01/09 08:37:43;;;;;;;5.13;1.40;;;;;;;5.74;76.74;95324.75;2081998;28;20197;-56
2023/01/09 08:38:44;;;;;;;3.50;1.10;;;;;;;5.71;77.22;95328.34;2082505;28;20667;-56
2023/01/09 08:39:45;;;;;;;3.08;0.88;;;;;;;6.03;76.21;95323.41;2082224;28;20224;-56
2023/01/09 08:40:49;;;;;;;2.17;0.80;;;;;;;6.43;75.04;95333.59;2081894;28;20197;-56
2023/01/09 08:47:19;;;;;;;3.47;0.70;;;;;;;7.59;71.43;95339.84;2080303;28;20224;-56
2023/01/09 08:48:21;;;;;;;3.08;0.98;;;;;;;7.61;70.61;95328.44;2082315;28;20239;-56
2023/01/09 08:49:22;;;;;;;3.53;0.93;;;;;;;7.31;70.90;95338.69;2083007;28;20205;-56
2023/01/09 08:50:23;;;;;;;4.93;0.80;;;;;;;7.12;71.43;95331.03;2084009;28;20247;-56
2023/01/09 08:51:25;;;;;;;4.00;1.58;;;;;;;7.65;70.20;95324.75;2082780;28;20212;-56
2023/01/09 08:52:29;;;;;;;3.50;0.80;;;;;;;7.95;69.76;95331.81;2085183;28;20237;-55
2023/01/09 08:53:30;;;;;;;2.83;0.95;;;;;;;8.27;68.67;95331.75;2082105;28;20199;-56
2023/01/09 08:54:35;;;;;;;4.13;0.88;;;;;;;8.11;67.92;95337.00;2078424;28;20197;-56
2023/01/09 08:55:37;;;;;;;5.13;0.85;;;;;;;7.60;69.42;95339.75;2079267;28;20195;-55
2023/01/09 08:56:38;;;;;;;1.80;0.70;;;;;;;7.91;69.18;95340.69;2080433;28;20213;-56
2023/01/09 08:57:51;;;;;;;3.35;0.80;;;;;;;8.45;68.32;95337.69;2080953;28;20192;-56
2023/01/09 08:58:52;;;;;;;4.85;0.70;;;;;;;8.12;68.36;95327.44;2078244;28;20235;-56
2023/01/09 08:59:54;;;;;;;1.30;0.70;;;;;;;8.07;68.78;95353.69;2081177;28;20196;-56
2023/01/09 09:00:57;;;;;;;2.85;0.80;;;;;;;8.13;68.57;95347.31;2078378;28;20325;-56
2023/01/09 09:01:59;;;;;;;4.45;1.05;;;;;;;8.28;67.59;95341.25;2078849;28;20255;-56
2023/01/09 09:03:01;;;;;;;5.15;0.90;;;;;;;8.49;66.77;95343.56;2081291;28;20193;-56
2023/01/09 09:04:04;;;;;;;2.85;0.80;;;;;;;8.97;66.20;95344.25;2080387;28;20200;-56
2023/01/09 09:05:05;;;;;;;2.00;0.70;;;;;;;9.30;65.49;95343.16;2082175;28;20200;-57
2023/01/09 09:06:07;;;;;;;5.05;1.27;;;;;;;9.20;65.74;95349.03;2081708;28;20681;-56
2023/01/09 09:07:08;;;;;;;2.97;0.80;;;;;;;8.35;67.51;95346.94;2078437;28;20225;-56
2023/01/09 09:08:10;;;;;;;3.30;0.70;;;;;;;7.42;70.11;95362.34;2072572;28;20225;-56
2023/01/09 09:09:11;;;;;;;3.15;1.30;;;;;;;6.95;72.25;95347.47;2073870;28;20240;-56
2023/01/09 09:10:13;;;;;;;1.60;0.60;;;;;;;7.27;70.73;95343.22;2076026;28;20240;-56
2023/01/09 09:11:15;;;;;;;7.07;1.45;;;;;;;6.80;72.70;95349.09;2074847;28;20224;-56
2023/01/09 09:12:16;;;;;;;2.50;0.82;;;;;;;6.42;72.74;95346.66;2072053;28;20237;-56
2023/01/09 09:13:18;;;;;;;3.17;0.70;;;;;;;6.34;73.95;95355.63;2075175;28;20427;-56
2023/01/09 09:15:39;;;;;;;3.75;0.80;;;;;;;5.80;76.00;95327.06;2072899;28;20655;-56
2023/01/09 09:16:41;;;;;;;11.43;2.55;;;;;;;5.85;75.81;95368.28;2073089;28;20307;-56
2023/01/09 09:17:43;;;;;;;1.33;0.77;;;;;;;5.65;76.78;95351.94;2076925;28;20237;-56
2023/01/09 09:18:44;;;;;;;2.67;1.00;;;;;;;5.59;77.50;95369.47;2076868;28;20237;-56
2023/01/09 09:19:46;;;;;;;8.05;1.00;;;;;;;6.00;75.99;95353.81;2072887;28;20190;-56
2023/01/09 09:20:47;;;;;;;3.90;0.88;;;;;;;6.04;75.89;95363.97;2076665;28;20197;-56
2023/01/09 09:21:49;;;;;;;4.88;0.82;;;;;;;5.92;76.18;95355.88;2075330;28;20229;-56
2023/01/09 09:22:50;;;;;;;3.35;0.90;;;;;;;6.09;75.42;95350.78;2077465;28;20206;-56
2023/01/09 09:23:52;;;;;;;2.15;0.70;;;;;;;5.87;76.07;95364.72;2077521;28;20193;-56
2023/01/09 09:24:53;;;;;;;5.22;0.80;;;;;;;5.99;76.46;95359.91;2076361;28;20201;-56
2023/01/09 09:25:55;;;;;;;2.17;0.70;;;;;;;5.79;75.68;95345.25;2072774;28;20233;-55
2023/01/09 09:26:56;;;;;;;7.20;0.90;;;;;;;5.61;76.82;95350.38;2077005;28;20291;-56
2023/01/09 09:27:59;;;;;;;3.15;0.70;;;;;;;6.16;76.56;95352.19;2076853;28;20239;-56
2023/01/09 09:29:01;;;;;;;2.97;0.98;;;;;;;6.64;75.10;95364.56;2075975;28;20251;-56
2023/01/09 09:30:03;;;;;;;4.55;1.10;;;;;;;6.83;74.03;95365.34;2074476;28;20204;-56
2023/01/09 09:31:05;;;;;;;4.22;0.90;;;;;;;6.75;73.48;95356.28;2076413;28;20198;-56
2023/01/09 09:32:07;;;;;;;4.75;0.85;;;;;;;7.28;71.68;95370.03;2075691;28;20232;-57
2023/01/09 09:33:09;;;;;;;2.83;0.90;;;;;;;6.61;73.13;95352.59;2076694;28;20214;-58
2023/01/09 09:34:11;;;;;;;5.03;0.75;;;;;;;6.15;74.89;95367.81;2073865;28;20885;-58
2023/01/09 09:35:13;;;;;;;6.97;0.95;;;;;;;5.82;76.78;95358.06;2076309;28;20234;-58
2023/01/09 09:36:14;;;;;;;7.65;0.90;;;;;;;5.64;77.49;95354.59;2072743;28;20194;-58
2023/01/09 09:37:16;;;;;;;2.90;0.80;;;;;;;5.54;78.14;95365.34;2072758;28;20226;-58
2023/01/09 09:38:17;;;;;;;2.38;0.80;;;;;;;5.47;77.93;95360.50;2076681;28;20197;-58
2023/01/09 09:39:19;;;;;;;3.53;1.00;;;;;;;5.33;78.93;95371.47;2075312;28;20231;-58
2023/01/09 09:40:29;;;;;;;1.83;0.70;;;;;;;5.33;78.95;95374.94;2073618;28;20190;-58
2023/01/09 09:44:42;;;;;;;5.22;0.80;;;;;;;5.13;80.26;95373.22;2076920;28;20212;-58
2023/01/09 09:46:07;;;;;;;10.80;1.20;;;;;;;5.15;80.13;95378.31;2074065;28;20283;-58
2023/01/09 09:47:15;;;;;;;2.88;1.10;;;;;;;5.15;79.86;95373.97;2074036;28;20229;-58
2023/01/09 09:48:36;;;;;;;3.30;0.70;;;;;;;5.17;80.14;95368.75;2075054;28;20201;-58
2023/01/09 09:50:04;;;;;;;2.92;1.05;;;;;;;5.16;80.79;95378.25;2076909;28;20260;-58
2023/01/09 09:53:35;;;;;;;7.18;1.10;;;;;;;5.16;79.97;95375.66;2083578;27;21088;-56
2023/01/09 10:32:26;;;;;;;6.47;1.25;;;;;;;5.01;83.05;95353.03;2099436;27;20564;-57
2023/01/09 10:33:49;;;;;;;6.78;0.90;;;;;;;5.07;82.39;95352.78;2095661;28;20195;-57
2023/01/09 10:37:20;;;;;;;4.47;1.00;;;;;;;5.10;81.63;95360.38;2088642;28;20564;-55
2023/01/09 10:38:27;;;;;;;3.53;0.88;;;;;;;5.17;81.81;95358.41;2083194;28;20207;-56
2023/01/09 10:41:50;;;;;;;3.28;0.90;;;;;;;5.27;82.18;95349.31;2085191;28;20563;-56
2023/01/09 10:42:59;;;;;;;2.95;0.90;;;;;;;5.26;81.38;95347.63;2075999;28;20536;-56
2023/01/09 10:44:15;;;;;;;2.38;0.80;;;;;;;5.38;81.40;95348.81;2076662;28;20194;-56
2023/01/09 10:45:29;;;;;;;3.50;0.80;;;;;;;5.38;80.43;95344.50;2080138;28;20203;-55
2023/01/09 10:46:43;;;;;;;1.85;0.80;;;;;;;5.68;80.74;95351.78;2077254;28;20209;-55
2023/01/09 10:47:45;;;;;;;3.33;1.02;;;;;;;6.72;76.80;95339.09;2075717;28;20208;-56
2023/01/09 10:48:54;;;;;;;3.60;0.80;;;;;;;7.45;73.72;95337.97;2075718;28;20197;-55
2023/01/09 10:49:56;;;;;;;5.68;1.10;;;;;;;7.30;74.15;95317.09;2076994;28;20205;-55
2023/01/09 10:50:58;;;;;;;6.78;0.90;;;;;;;6.98;74.59;95330.00;2075946;28;20220;-55
2023/01/09 10:52:12;;;;;;;4.93;0.90;;;;;;;6.89;75.07;95335.63;2079784;28;20286;-55
2023/01/09 10:53:22;;;;;;;3.83;0.90;;;;;;;6.54;75.74;95330.50;2079677;28;20205;-56
2023/01/09 10:54:24;;;;;;;17.45;1.35;;;;;;;6.23;76.74;95329.38;2078380;28;20773;-56
2023/01/09 10:55:40;;;;;;;2.40;0.80;;;;;;;6.10;77.08;95334.31;2077398;28;20193;-55
2023/01/09 10:56:48;;;;;;;2.75;0.90;;;;;;;5.95;78.33;95333.25;2080003;28;20201;-55
2023/01/09 10:57:56;;;;;;;8.30;0.90;;;;;;;5.77;79.59;95336.72;2079815;28;20193;-55
2023/01/09 10:58:58;;;;;;;5.80;1.98;;;;;;;5.64;79.86;95329.53;2079181;28;20194;-55
2023/01/09 10:59:59;;;;;;;3.95;0.80;;;;;;;5.68;80.15;95325.88;2075680;28;20198;-56
2023/01/09 11:01:02;;;;;;;2.58;1.00;;;;;;;5.62;80.00;95333.91;2073716;28;20218;-55
2023/01/09 11:02:03;;;;;;;9.68;1.38;;;;;;;5.51;79.92;95325.81;2073813;28;20225;-55
2023/01/09 11:03:05;;;;;;;2.67;0.98;;;;;;;5.49;79.89;95325.88;2072541;28;20198;-55
2023/01/09 11:04:22;;;;;;;5.65;1.17;;;;;;;5.55;79.71;95327.34;2075060;28;20205;-55
2023/01/09 11:05:27;;;;;;;6.88;0.90;;;;;;;5.67;79.34;95331.13;2076706;28;20205;-56
2023/01/09 11:06:40;;;;;;;3.00;1.00;;;;;;;5.76;78.83;95328.09;2076203;28;20225;-55
2023/01/09 11:07:45;;;;;;;4.88;1.02;;;;;;;5.84;78.66;95322.56;2076799;28;20208;-55
2023/01/09 11:08:49;;;;;;;6.28;1.83;;;;;;;5.86;78.16;95324.16;2074968;28;20576;-55
2023/01/09 11:10:01;;;;;;;4.72;0.90;;;;;;;6.15;77.18;95318.56;2077537;28;20503;-55
2023/01/09 11:11:03;;;;;;;2.22;0.77;;;;;;;7.58;73.33;95314.78;2073694;28;20209;-57
2023/01/09 11:12:25;;;;;;;4.28;0.70;;;;;;;8.37;69.65;95308.69;2069197;28;20896;-58
2023/01/09 11:13:32;;;;;;;2.13;0.70;;;;;;;9.12;67.22;95310.44;2080257;28;20208;-57
2023/01/09 11:14:33;;;;;;;2.50;1.08;;;;;;;9.07;66.13;95307.28;2081028;28;20196;-58
2023/01/09 11:15:35;;;;;;;2.05;0.70;;;;;;;9.35;66.05;95293.41;2077751;28;20193;-58
2023/01/09 11:16:36;;;;;;;3.05;0.90;;;;;;;9.19;66.60;95309.13;2078793;28;20211;-58
2023/01/09 11:17:37;;;;;;;8.95;1.00;;;;;;;8.54;68.22;95312.94;2074676;28;20845;-58
2023/01/09 11:18:48;;;;;;;6.18;1.10;;;;;;;8.31;67.92;95314.22;2075675;28;20206;-58
2023/01/09 11:20:04;;;;;;;1.98;0.90;;;;;;;8.61;66.98;95306.44;2081218;28;20201;-57
2023/01/09 11:21:32;;;;;;;3.58;0.90;;;;;;;9.40;65.51;95298.34;2078505;28;20202;-58
2023/01/09 11:22:46;;;;;;;1.60;0.70;;;;;;;8.49;66.60;95301.94;2078252;28;20212;-57
2023/01/09 11:23:48;;;;;;;4.60;0.80;;;;;;;9.12;65.68;95305.22;2079075;28;20879;-57
2023/01/09 11:25:01;;;;;;;3.97;0.80;;;;;;;8.03;69.27;95307.97;2076717;28;20232;-57
2023/01/09 11:26:03;;;;;;;3.33;0.85;;;;;;;7.98;69.69;95308.22;2077645;28;20200;-58
2023/01/09 11:27:22;;;;;;;1.83;0.60;;;;;;;7.34;70.95;95320.38;2074883;28;20842;-57
2023/01/09 11:28:24;;;;;;;3.38;0.90;;;;;;;7.28;72.23;95323.28;2076414;28;20205;-57
2023/01/09 11:29:26;;;;;;;3.55;0.90;;;;;;;7.16;72.60;95317.81;2074550;28;20207;-57
2023/01/09 11:30:29;;;;;;;3.45;0.90;;;;;;;6.93;72.92;95320.75;2074920;28;20519;-57
2023/01/09 11:31:31;;;;;;;4.25;0.80;;;;;;;6.93;73.67;95318.16;2072523;28;20193;-57
2023/01/09 11:32:33;;;;;;;5.65;0.88;;;;;;;6.89;73.49;95321.84;2077032;28;20209;-57
2023/01/09 11:33:41;;;;;;;9.18;0.95;;;;;;;6.91;72.45;95322.59;2076586;28;20240;-57
2023/01/09 11:34:44;;;;;;;2.70;0.85;;;;;;;6.82;73.32;95322.16;2076139;28;20243;-57
2023/01/09 11:36:09;;;;;;;9.65;1.00;;;;;;;6.82;73.20;95319.56;2079456;28;20220;-57
2023/01/09 11:37:16;;;;;;;3.97;1.00;;;;;;;6.71;73.80;95314.06;2074974;28;20782;-57
2023/01/09 11:38:17;;;;;;;8.30;1.08;;;;;;;6.62;73.67;95312.78;2078165;28;20198;-57
2023/01/09 11:39:24;;;;;;;3.80;1.00;;;;;;;6.56;74.05;95325.22;2076397;28;20236;-57
2023/01/09 11:40:29;;;;;;;4.97;1.00;;;;;;;6.56;74.61;95313.06;2076419;28;20286;-57
2023/01/09 11:41:34;;;;;;;5.20;1.02;;;;;;;6.52;74.94;95317.56;2075909;28;20570;-57
2023/01/09 11:42:51;;;;;;;2.40;0.80;;;;;;;6.49;74.86;95312.56;2074583;28;20201;-57
2023/01/09 11:43:57;;;;;;;2.88;0.90;;;;;;;6.45;75.56;95315.38;2074667;28;20275;-57
2023/01/09 11:45:00;;;;;;;2.88;0.95;;;;;;;6.51;75.91;95309.88;2079650;28;20595;-57
2023/01/09 11:46:07;;;;;;;10.30;1.23;;;;;;;6.38;75.66;95312.25;2080799;28;20793;-57
2023/01/09 11:47:38;;;;;;;4.05;0.98;;;;;;;6.52;75.53;95309.78;2076434;28;20226;-57
2023/01/09 11:48:53;;;;;;;4.05;0.80;;;;;;;6.44;75.43;95309.34;2077656;28;20213;-58
2023/01/09 11:50:20;;;;;;;2.75;0.90;;;;;;;6.40;74.94;95306.97;2077312;28;20200;-57
2023/01/09 11:51:35;;;;;;;3.15;1.10;;;;;;;6.45;75.88;95310.19;2078172;28;20206;-57
2023/01/09 11:52:37;;;;;;;4.30;1.00;;;;;;;6.32;75.77;95307.34;2071080;28;20232;-57
2023/01/09 11:53:53;;;;;;;4.25;1.50;;;;;;;6.37;76.48;95313.16;2069188;28;20880;-57
2023/01/09 11:55:01;;;;;;;5.85;1.20;;;;;;;6.08;76.06;95306.78;2069098;28;20205;-57
2023/01/09 11:56:03;;;;;;;5.30;0.93;;;;;;;6.05;77.20;95307.78;2070273;28;20198;-58
2023/01/09 11:57:09;;;;;;;8.13;1.10;;;;;;;6.03;77.17;95315.63;2068526;28;20238;-57
2023/01/09 11:59:32;;;;;;;4.53;1.38;;;;;;;5.81;77.53;95297.63;2102380;27;21179;-57
2023/01/09 12:03:00;;;;;;;3.58;0.98;;;;;;;5.77;79.93;95309.06;2090447;28;20601;-55
2023/01/09 12:06:40;;;;;;;14.55;1.17;;;;;;;5.61;81.20;95318.47;2098846;27;21036;-57
2023/01/09 12:10:46;;;;;;;3.53;1.00;;;;;;;5.56;81.88;95311.75;2115766;27;20927;-58
2023/01/09 12:19:37;;;;;;;3.58;1.05;;;;;;;5.31;84.59;95340.50;2100250;27;20553;-57
2023/01/09 12:20:55;;;;;;;5.20;0.85;;;;;;;5.34;84.65;95349.88;2098106;28;20631;-58
2023/01/09 12:22:06;;;;;;;2.50;1.33;;;;;;;5.30;85.73;95336.22;2089222;28;20451;-58
2023/01/09 12:23:08;;;;;;;6.20;1.10;;;;;;;5.47;85.46;95348.44;2082381;28;20284;-58
2023/01/09 12:24:59;;;;;;;1.17;0.70;;;;;;;5.38;84.10;95310.84;2083222;28;20230;-57
2023/01/09 12:26:16;;;;;;;5.65;0.80;;;;;;;5.79;83.39;95346.09;2054275;28;20207;-57
2023/01/09 12:27:45;;;;;;;4.65;0.80;;;;;;;5.77;83.74;95339.31;2074781;28;20247;-57
2023/01/09 12:28:57;;;;;;;1.40;0.90;;;;;;;5.71;83.02;95346.47;2073877;28;20533;-57
2023/01/09 12:30:08;;;;;;;1.95;0.98;;;;;;;5.73;82.99;95343.78;2072900;28;20237;-57
2023/01/09 12:31:16;;;;;;;4.68;1.08;;;;;;;5.79;83.32;95340.06;2074544;28;20194;-57
2023/01/09 12:32:34;;;;;;;5.82;0.90;;;;;;;6.10;81.76;95342.09;2081098;28;20239;-57
2023/01/09 12:33:47;;;;;;;2.10;0.80;;;;;;;6.03;82.20;95341.56;2080099;28;20226;-58
2023/01/09 12:35:04;;;;;;;2.35;1.10;;;;;;;5.94;81.71;95339.38;2075152;28;20225;-57
2023/01/09 12:36:27;;;;;;;2.88;0.90;;;;;;;5.81;81.68;95335.66;2073431;28;20225;-57
2023/01/09 12:37:46;;;;;;;5.03;0.70;;;;;;;5.79;81.73;95329.72;2073969;28;20244;-57
2023/01/09 12:44:32;;;;;;;5.18;1.10;;;;;;;5.55;83.95;95337.72;2092047;28;20593;-57
2023/01/09 12:47:45;;;;;;;16.27;8.35;;;;;;;5.61;84.14;95341.75;2091026;28;20551;-54
2023/01/09 12:49:15;;;;;;;13.70;6.25;;;;;;;5.60;83.36;95342.66;2089431;28;21106;-55
2023/01/09 12:50:31;;;;;;;2.22;1.30;;;;;;;5.72;84.67;95342.09;2090300;28;20192;-55
2023/01/09 12:52:10;;;;;;;2.53;0.70;;;;;;;5.82;83.70;95337.34;2088343;28;20199;-55
2023/01/09 12:53:24;;;;;;;1.58;0.95;;;;;;;5.80;83.48;95334.84;2084591;28;20698;-55
2023/01/09 12:54:48;;;;;;;2.55;0.80;;;;;;;5.88;83.12;95348.25;2085654;28;20202;-55
2023/01/09 12:56:00;;;;;;;2.58;0.90;;;;;;;5.95;83.06;95346.22;2084956;28;20193;-55
2023/01/09 12:57:29;;;;;;;3.78;0.93;;;;;;;5.96;83.49;95352.25;2085434;28;20269;-55
2023/01/09 12:58:55;;;;;;;2.70;1.25;;;;;;;5.99;83.42;95344.34;2094441;28;20227;-55
2023/01/09 13:00:05;;;;;;;2.15;0.82;;;;;;;6.01;83.22;95345.97;2089216;28;20200;-55
2023/01/09 13:01:13;;;;;;;4.05;1.38;;;;;;;5.98;83.09;95337.44;2086209;28;20200;-55
2023/01/09 13:02:41;;;;;;;1.60;0.80;;;;;;;5.83;82.23;95339.88;2083964;28;20715;-55
2023/01/09 13:03:49;;;;;;;2.63;0.85;;;;;;;5.83;83.34;95339.88;2084424;28;20201;-55
2023/01/09 13:09:46;;;;;;;3.50;0.80;;;;;;;5.73;83.36;95334.25;2092332;27;20863;-57
2023/01/09 13:32:41;;;;;;;3.28;0.90;;;;;;;5.48;88.59;95370.78;2084112;28;21039;-55
2023/01/09 13:33:52;;;;;;;4.03;0.90;;;;;;;5.47;87.35;95356.19;2082067;28;20550;-55
2023/01/09 13:34:56;;;;;;;1.85;0.80;;;;;;;5.51;85.31;95349.97;2082634;28;20684;-57
2023/01/09 13:35:59;;;;;;;2.10;0.80;;;;;;;5.64;85.19;95360.59;2081134;28;20855;-55
2023/01/09 13:37:00;;;;;;;2.85;1.10;;;;;;;5.51;85.30;95370.69;2076861;28;20217;-55
2023/01/09 13:38:02;;;;;;;2.92;0.88;;;;;;;5.40;85.15;95385.84;2070685;28;20331;-55
2023/01/09 13:39:05;;;;;;;1.25;0.63;;;;;;;5.34;85.34;95381.75;2072048;28;20275;-55
2023/01/09 13:40:18;;;;;;;1.92;0.77;;;;;;;5.35;85.46;95383.44;2071924;28;20573;-55
2023/01/09 13:42:46;;;;;;;1.27;0.68;;;;;;;5.38;85.32;95383.34;2073790;28;20201;-56
2023/01/09 13:43:54;;;;;;;1.30;0.50;;;;;;;5.21;85.70;95393.56;2073472;28;20202;-56
2023/01/09 13:45:19;;;;;;;2.58;0.70;;;;;;;5.13;86.22;95372.34;2074183;28;20213;-56
2023/01/09 13:46:21;;;;;;;2.35;1.10;;;;;;;5.16;86.25;95391.19;2074103;28;20198;-56
2023/01/09 13:47:27;;;;;;;2.70;1.00;;;;;;;5.12;85.36;95389.63;2072592;28;20908;-56
2023/01/09 13:48:39;;;;;;;3.17;1.25;;;;;;;5.11;83.99;95398.31;2074267;28;20228;-55
2023/01/09 13:49:40;;;;;;;2.05;1.05;;;;;;;5.17;83.91;95399.81;2075044;28;20344;-56
2023/01/09 13:50:44;;;;;;;1.75;0.60;;;;;;;5.62;81.44;95396.06;2070470;28;20644;-56
2023/01/09 13:51:57;;;;;;;1.55;0.70;;;;;;;5.51;80.75;95391.41;2070532;28;20236;-57
2023/01/09 13:53:18;;;;;;;2.10;0.50;;;;;;;5.43;80.37;95395.22;2070410;28;20197;-55
2023/01/09 13:54:54;;;;;;;1.13;0.60;;;;;;;5.39;80.51;95400.53;2072744;28;20693;-56
2023/01/09 13:55:58;;;;;;;1.60;0.60;;;;;;;5.42;81.42;95401.31;2074021;28;20630;-56
2023/01/09 13:57:18;;;;;;;2.30;0.70;;;;;;;5.49;83.03;95397.56;2073534;28;20221;-56
2023/01/09 13:58:21;;;;;;;5.30;0.70;;;;;;;5.45;83.19;95396.84;2074776;28;20204;-56
2023/01/09 13:59:27;;;;;;;2.47;0.75;;;;;;;5.30;82.83;95389.75;2072285;28;20832;-55
2023/01/09 14:00:34;;;;;;;2.22;0.90;;;;;;;5.34;82.17;95401.66;2070403;28;20233;-55
2023/01/09 14:01:38;;;;;;;2.65;0.68;;;;;;;5.35;83.05;95398.16;2071455;28;21069;-56
2023/01/09 14:02:40;;;;;;;2.72;0.60;;;;;;;5.23;81.56;95396.91;2074938;28;20189;-55
2023/01/09 14:05:49;;;;;;;3.00;0.90;;;;;;;5.21;82.05;95397.00;2101121;27;20550;-56
2023/01/09 14:07:19;;;;;;;3.40;0.80;;;;;;;5.27;82.73;95403.66;2089595;28;20311;-57
2023/01/09 14:08:25;;;;;;;2.05;0.70;;;;;;;5.48;80.39;95406.22;2082534;28;20193;-57
2023/01/09 14:09:26;;;;;;;1.40;0.70;;;;;;;5.94;79.05;95400.72;2079011;28;21058;-57
2023/01/09 14:10:34;;;;;;;1.98;0.77;;;;;;;5.66;79.50;95407.13;2080541;28;20386;-57
2023/01/09 14:11:35;;;;;;;2.65;0.90;;;;;;;5.65;78.94;95395.94;2082029;28;20208;-57
2023/01/09 14:12:39;;;;;;;2.58;0.82;;;;;;;5.87;78.88;95398.41;2082993;28;20196;-57
2023/01/09 14:13:45;;;;;;;1.00;0.60;;;;;;;5.63;78.59;95392.59;2078824;28;20287;-57
2023/01/09 14:14:49;;;;;;;3.15;0.82;;;;;;;5.60;79.30;95400.50;2080341;28;20200;-57
2023/01/09 14:16:00;;;;;;;1.20;0.60;;;;;;;5.50;79.10;95412.19;2083377;28;20198;-57
2023/01/09 14:17:15;;;;;;;4.13;0.70;;;;;;;5.29;79.31;95396.66;2082125;28;20227;-57
2023/01/09 14:18:25;;;;;;;1.35;0.60;;;;;;;5.21;79.26;95402.19;2083488;28;20203;-57
2023/01/09 14:19:38;;;;;;;1.10;0.70;;;;;;;5.19;79.81;95413.50;2082710;28;20193;-57
2023/01/09 14:20:51;;;;;;;2.53;0.98;;;;;;;5.20;80.32;95410.84;2081435;28;20193;-57
2023/01/09 14:21:55;;;;;;;2.75;0.60;;;;;;;5.36;79.59;95420.56;2079381;28;20221;-57
2023/01/09 14:22:59;;;;;;;2.03;0.68;;;;;;;5.44;78.96;95412.44;2080756;28;20201;-57
2023/01/09 14:24:26;;;;;;;3.72;0.70;;;;;;;5.44;78.36;95415.03;2081890;28;20258;-57
2023/01/09 14:25:30;;;;;;;2.72;0.70;;;;;;;5.28;78.82;95410.53;2081575;28;20217;-57
2023/01/09 14:26:44;;;;;;;2.97;0.80;;;;;;;5.80;78.48;95425.50;2082152;28;20228;-57
2023/01/09 14:28:02;;;;;;;1.90;0.60;;;;;;;5.98;77.20;95420.38;2082856;28;20199;-57
2023/01/09 14:29:34;;;;;;;1.67;0.70;;;;;;;6.06;76.35;95431.28;2078940;28;20201;-57
2023/01/09 14:30:51;;;;;;;4.53;0.68;;;;;;;6.37;75.79;95427.25;2081532;28;20193;-57
2023/01/09 14:32:12;;;;;;;3.58;0.50;;;;;;;6.44;76.28;95438.19;2081022;28;20224;-57
2023/01/09 14:33:17;;;;;;;2.55;0.70;;;;;;;6.10;77.21;95438.00;2083522;28;20201;-57
2023/01/09 14:34:36;;;;;;;1.40;0.60;;;;;;;6.36;76.73;95430.75;2082956;28;20243;-58
2023/01/09 14:35:43;;;;;;;2.55;0.70;;;;;;;6.17;75.84;95435.94;2082983;28;20198;-57
2023/01/09 14:36:44;;;;;;;1.73;0.60;;;;;;;5.83;76.58;95434.91;2078203;28;20288;-57
2023/01/09 14:38:02;;;;;;;5.38;0.88;;;;;;;5.53;77.08;95445.69;2079163;28;20728;-57
2023/01/09 14:39:08;;;;;;;1.25;0.60;;;;;;;5.45;78.23;95440.03;2081273;28;20194;-57
2023/01/09 14:40:19;;;;;;;2.40;0.80;;;;;;;5.36;78.32;95433.50;2082936;28;20224;-57
